Terminal Aerodrome Forecast
Issued by NWS Bismarck, ND

Home | Current Version | Previous Version | Text Only | Print | Product List | Glossary On
Versions: 1 2 3 4 5 6 7 8 9 10 11 12 13 14 15 16 17 18 19
380
FTUS43 KBIS 272221 AAA
TAFBIS
TAF AMD
KBIS 272221Z 2722/2818 17020G29KT P6SM FEW100 SCT250
     FM280100 16012KT P6SM VCTS BKN080CB
      TEMPO 2801/2803 4SM TSRA OVC060CB
     FM280300 16009KT P6SM VCTS BKN120CB
     FM280500 26006KT P6SM BKN200
     FM281200 32012G22KT P6SM BKN200=

USA.gov is the U.S. government's official web portal to all federal, state and local government web resources and services.